createdAt,value
2022-11-24T00:00:56.159Z,9.70
2022-11-24T00:03:25.624Z,10.40
2022-11-24T00:05:53.966Z,16.63
2022-11-24T00:08:21.120Z,10.17
2022-11-24T00:10:49.769Z,11.80
2022-11-24T00:13:18.223Z,10.10
2022-11-24T00:15:46.230Z,11.50
2022-11-24T00:18:14.958Z,14.03
2022-11-24T00:20:43.966Z,11.53
2022-11-24T00:23:10.765Z,8.23
2022-11-24T00:25:43.344Z,13.10
2022-11-24T00:28:14.204Z,14.70
2022-11-24T00:30:43.977Z,12.87
2022-11-24T00:33:16.960Z,12.73
2022-11-24T00:35:44.793Z,11.70
2022-11-24T00:38:13.214Z,15.97
2022-11-24T00:40:42.611Z,13.40
2022-11-24T00:43:09.656Z,12.87
2022-11-24T00:45:37.438Z,9.37
2022-11-24T00:48:07.864Z,11.07
2022-11-24T00:50:36.829Z,11.03
2022-11-24T00:53:04.187Z,12.60
2022-11-24T00:55:36.616Z,7.83
2022-11-24T00:58:05.026Z,9.35
2022-11-24T01:04:34.393Z,10.43
2022-11-24T01:07:41.351Z,11.00
2022-11-24T01:10:48.010Z,9.50
2022-11-24T01:13:55.040Z,9.77
2022-11-24T01:16:24.769Z,11.30
2022-11-24T01:19:00.282Z,14.93
2022-11-24T01:22:06.876Z,7.13
2022-11-24T01:24:33.838Z,12.80
2022-11-24T01:27:40.438Z,12.23
2022-11-24T01:30:47.004Z,11.07
2022-11-24T01:33:55.071Z,9.60
2022-11-24T01:37:01.428Z,11.87
2022-11-24T01:40:07.996Z,7.47
2022-11-24T01:43:17.114Z,8.30
2022-11-24T01:46:23.872Z,12.03
2022-11-24T01:49:30.561Z,10.53
2022-11-24T01:55:36.970Z,9.57
2022-11-24T01:58:23.367Z,11.20
2022-11-24T02:01:29.851Z,12.23
2022-11-24T02:03:56.421Z,9.77
2022-11-24T02:07:03.039Z,17.63
2022-11-24T02:09:35.380Z,7.17
2022-11-24T02:12:36.252Z,10.77
2022-11-24T02:15:02.739Z,10.87
2022-11-24T02:17:29.263Z,11.13
2022-11-24T02:19:58.018Z,11.27
2022-11-24T02:22:43.404Z,7.33
2022-11-24T02:25:22.092Z,11.40
2022-11-24T02:27:53.710Z,9.53
2022-11-24T02:30:20.636Z,14.48
2022-11-24T02:32:47.785Z,11.13
2022-11-24T02:35:14.792Z,7.83
2022-11-24T02:37:41.287Z,9.13
2022-11-24T02:40:08.346Z,7.50
2022-11-24T02:42:37.102Z,13.37
2022-11-24T02:45:03.738Z,8.37
2022-11-24T02:47:30.642Z,12.73
2022-11-24T02:49:57.115Z,8.57
2022-11-24T02:52:23.656Z,9.07
2022-11-24T02:54:50.411Z,9.93
2022-11-24T02:57:17.004Z,14.10
2022-11-24T02:59:43.509Z,10.63
2022-11-24T03:02:10.732Z,14.80
2022-11-24T03:04:37.290Z,5.50
2022-11-24T03:07:03.796Z,9.60
2022-11-24T03:09:30.532Z,6.30
2022-11-24T03:11:56.991Z,10.47
2022-11-24T03:14:23.490Z,7.90
2022-11-24T03:16:50.264Z,8.47
2022-11-24T03:19:16.743Z,11.93
2022-11-24T03:21:43.208Z,12.50
2022-11-24T03:24:09.818Z,10.77
2022-11-24T03:26:36.285Z,6.73
2022-11-24T03:29:02.835Z,10.70
2022-11-24T03:31:29.648Z,13.57
2022-11-24T03:33:56.540Z,15.53
2022-11-24T03:36:23.019Z,13.20
2022-11-24T03:38:50.052Z,13.53
2022-11-24T03:41:16.531Z,8.67
2022-11-24T03:43:44.242Z,13.70
2022-11-24T03:46:12.214Z,9.90
2022-11-24T03:48:39.044Z,14.90
2022-11-24T03:51:05.624Z,17.27
2022-11-24T03:53:32.657Z,11.13
2022-11-24T03:55:59.495Z,14.17
2022-11-24T03:58:26.012Z,14.20
2022-11-24T04:00:53.474Z,15.20
2022-11-24T04:03:20.072Z,17.40
2022-11-24T04:05:46.628Z,15.40
2022-11-24T04:08:13.505Z,17.53
2022-11-24T04:10:40.068Z,15.40
2022-11-24T04:13:16.955Z,14.43
2022-11-24T04:15:44.088Z,16.93
2022-11-24T04:18:11.407Z,11.97
2022-11-24T04:20:38.302Z,11.03
2022-11-24T04:23:04.853Z,17.10
2022-11-24T04:25:31.453Z,11.60
2022-11-24T04:27:58.201Z,13.03
2022-11-24T04:30:25.429Z,15.60
2022-11-24T04:32:51.912Z,12.20
2022-11-24T04:35:18.617Z,13.80
2022-11-24T04:37:45.096Z,18.17
2022-11-24T04:40:11.964Z,13.27
2022-11-24T04:42:38.920Z,18.50
2022-11-24T04:45:06.318Z,16.73
2022-11-24T04:47:32.950Z,19.13
2022-11-24T04:49:59.759Z,16.70
2022-11-24T04:52:26.391Z,16.33
2022-11-24T04:54:53.142Z,12.03
2022-11-24T04:57:21.642Z,20.43
2022-11-24T04:59:48.753Z,22.17
2022-11-24T05:02:15.313Z,18.40
2022-11-24T05:04:42.217Z,19.97
2022-11-24T05:07:16.476Z,24.07
2022-11-24T05:10:03.576Z,16.53
2022-11-24T05:12:31.361Z,12.77
2022-11-24T05:15:01.783Z,17.20
2022-11-24T05:17:29.779Z,19.13
2022-11-24T05:19:56.332Z,16.87
2022-11-24T05:22:22.986Z,17.33
2022-11-24T05:24:49.889Z,22.87
2022-11-24T05:27:16.380Z,17.80
2022-11-24T05:29:42.951Z,13.47
2022-11-24T05:32:09.636Z,15.00
2022-11-24T05:34:36.433Z,18.17
2022-11-24T05:37:03.718Z,26.63
2022-11-24T05:39:34.290Z,14.57
2022-11-24T05:42:21.913Z,24.73
2022-11-24T05:44:48.823Z,17.77
2022-11-24T05:47:15.331Z,17.50
2022-11-24T05:49:41.811Z,24.07
2022-11-24T05:52:08.702Z,16.53
2022-11-24T05:54:35.427Z,22.40
2022-11-24T05:57:02.349Z,19.77
2022-11-24T05:59:28.990Z,21.40
2022-11-24T06:01:55.671Z,27.70
2022-11-24T06:04:22.277Z,16.97
2022-11-24T06:06:48.968Z,22.23
2022-11-24T06:09:15.459Z,26.87
2022-11-24T06:11:41.922Z,20.87
2022-11-24T06:14:11.307Z,25.33
2022-11-24T06:16:38.318Z,23.10
2022-11-24T06:19:04.940Z,19.27
2022-11-24T06:21:32.119Z,20.07
2022-11-24T06:23:58.849Z,29.23
2022-11-24T06:26:25.360Z,21.97
2022-11-24T06:28:52.128Z,25.77
2022-11-24T06:31:18.897Z,21.53
2022-11-24T06:33:45.502Z,16.60
2022-11-24T06:36:13.386Z,30.90
2022-11-24T06:38:39.893Z,26.43
2022-11-24T06:41:16.365Z,26.43
2022-11-24T06:43:43.199Z,26.10
2022-11-24T06:46:10.074Z,18.17
2022-11-24T06:48:37.135Z,25.40
2022-11-24T06:51:04.952Z,29.17
2022-11-24T06:53:38.113Z,25.10
2022-11-24T06:56:08.372Z,21.33
2022-11-24T06:58:42.665Z,19.77
2022-11-24T07:01:09.621Z,25.63
2022-11-24T07:03:36.216Z,22.57
2022-11-24T07:06:02.778Z,25.07
2022-11-24T07:08:29.479Z,27.60
2022-11-24T07:10:55.928Z,19.50
2022-11-24T07:13:22.436Z,18.00
2022-11-24T07:15:49.103Z,20.33
2022-11-24T07:18:15.577Z,19.10
2022-11-24T07:20:42.109Z,20.23
2022-11-24T07:23:09.133Z,21.37
2022-11-24T07:25:35.598Z,20.73
2022-11-24T07:28:02.204Z,20.73
2022-11-24T07:30:28.994Z,19.90
2022-11-24T07:32:59.163Z,23.60
2022-11-24T07:35:25.697Z,20.73
2022-11-24T07:37:54.612Z,21.73
2022-11-24T07:40:21.112Z,24.30
2022-11-24T07:42:47.875Z,29.37
2022-11-24T07:45:14.536Z,26.30
2022-11-24T07:47:41.295Z,23.67
2022-11-24T07:50:09.852Z,27.70
2022-11-24T07:52:37.411Z,23.50
2022-11-24T07:55:04.583Z,25.67
2022-11-24T08:01:15.720Z,20.30
2022-11-24T08:03:42.735Z,14.17
2022-11-24T08:06:28.618Z,21.20
2022-11-24T08:08:56.951Z,17.53
2022-11-24T08:11:23.683Z,22.93
2022-11-24T08:13:50.161Z,15.40
2022-11-24T08:16:18.074Z,13.20
2022-11-24T08:18:48.737Z,14.20
2022-11-24T08:21:15.211Z,15.87
2022-11-24T08:23:41.975Z,18.20
2022-11-24T08:26:11.044Z,27.40
2022-11-24T08:28:38.280Z,12.43
2022-11-24T08:31:09.270Z,11.83
2022-11-24T08:33:36.440Z,14.37
2022-11-24T08:36:07.040Z,16.40
2022-11-24T08:38:33.851Z,14.63
2022-11-24T08:41:04.492Z,11.77
2022-11-24T08:43:31.431Z,12.97
2022-11-24T08:46:01.880Z,9.40
2022-11-24T08:48:28.904Z,7.57
2022-11-24T08:50:55.692Z,9.93
2022-11-24T08:53:22.231Z,7.60
2022-11-24T08:55:49.186Z,9.50
2022-11-24T08:58:16.628Z,8.57
2022-11-24T09:00:43.480Z,9.30
2022-11-24T09:03:11.417Z,6.20
2022-11-24T09:05:53.430Z,5.77
2022-11-24T09:08:20.806Z,6.97
2022-11-24T09:10:47.467Z,5.93
2022-11-24T09:13:14.070Z,2.30
2022-11-24T09:15:41.115Z,2.57
2022-11-24T09:18:07.592Z,1.73
2022-11-24T09:20:34.153Z,0.67
2022-11-24T09:23:00.907Z,2.53
2022-11-24T09:25:27.481Z,3.63
2022-11-24T09:27:54.697Z,1.13
2022-11-24T09:30:21.478Z,2.73
2022-11-24T09:32:48.040Z,4.10
2022-11-24T09:35:14.567Z,4.50
2022-11-24T09:37:41.571Z,3.70
2022-11-24T09:40:10.556Z,4.97
2022-11-24T09:42:37.082Z,5.67
2022-11-24T09:45:49.011Z,5.37
2022-11-24T09:48:50.108Z,4.37
2022-11-24T09:51:16.886Z,7.50
2022-11-24T09:54:05.736Z,7.17
2022-11-24T09:57:12.299Z,10.93
2022-11-24T09:59:40.968Z,13.17
2022-11-24T10:02:12.116Z,6.77
2022-11-24T10:04:46.339Z,11.40
2022-11-24T10:07:13.265Z,7.57
2022-11-24T10:09:52.125Z,40.77
2022-11-24T10:12:57.322Z,12.43
2022-11-24T10:16:07.163Z,8.60
2022-11-24T10:18:56.762Z,10.17
2022-11-24T10:21:29.901Z,13.23
2022-11-24T10:24:16.586Z,14.07
2022-11-24T10:26:51.221Z,13.40
2022-11-24T10:29:21.458Z,15.63
2022-11-24T10:31:50.310Z,10.93
2022-11-24T10:34:18.342Z,15.33
2022-11-24T10:37:03.486Z,10.70
2022-11-24T10:39:30.343Z,14.50
2022-11-24T10:42:20.102Z,13.73
2022-11-24T10:44:47.086Z,8.97
2022-11-24T10:47:20.263Z,9.70
2022-11-24T10:50:03.382Z,16.77
2022-11-24T10:52:31.624Z,19.08
2022-11-24T10:55:04.443Z,20.10
2022-11-24T10:57:32.956Z,11.60
2022-11-24T11:00:00.146Z,16.07
2022-11-24T11:02:36.300Z,14.60
2022-11-24T11:05:21.331Z,15.43
2022-11-24T11:07:48.406Z,12.40
2022-11-24T11:10:19.745Z,18.93
2022-11-24T11:12:46.285Z,17.67
2022-11-24T11:15:23.184Z,16.60
2022-11-24T11:17:50.552Z,7.63
2022-11-24T11:20:18.902Z,16.67
2022-11-24T11:22:47.320Z,9.83
2022-11-24T11:25:13.771Z,18.57
2022-11-24T11:27:41.013Z,10.37
2022-11-24T11:35:58.478Z,13.83
2022-11-24T11:38:35.611Z,10.83
2022-11-24T11:41:03.069Z,10.57
2022-11-24T11:43:34.666Z,14.60
2022-11-24T11:46:09.484Z,13.60
2022-11-24T11:48:43.250Z,13.80
2022-11-24T11:51:25.593Z,16.57
2022-11-24T11:54:10.638Z,13.07
2022-11-24T11:56:40.496Z,11.80
2022-11-24T11:59:22.350Z,12.67
2022-11-24T12:01:49.015Z,9.53
2022-11-24T12:04:15.543Z,16.17
2022-11-24T12:06:54.722Z,9.47
2022-11-24T12:09:50.439Z,9.30
2022-11-24T12:12:33.924Z,16.37
2022-11-24T12:15:10.578Z,7.17
2022-11-24T12:17:43.073Z,11.90
2022-11-24T12:20:15.708Z,14.43
2022-11-24T12:22:54.170Z,10.40
2022-11-24T12:25:27.030Z,7.93
2022-11-24T12:27:59.778Z,10.40
2022-11-24T12:30:28.856Z,9.20
2022-11-24T12:32:55.362Z,12.83
2022-11-24T12:35:42.352Z,12.73
2022-11-24T12:38:17.995Z,15.83
2022-11-24T12:40:47.091Z,11.90
2022-11-24T12:43:27.408Z,14.47
2022-11-24T12:45:54.254Z,12.03
2022-11-24T12:48:36.059Z,10.07
2022-11-24T12:51:04.552Z,11.30
2022-11-24T12:53:32.954Z,12.17
2022-11-24T12:56:05.037Z,11.80
2022-11-24T12:58:46.332Z,16.70
2022-11-24T13:01:18.739Z,11.37
2022-11-24T13:04:05.764Z,17.65
2022-11-24T13:06:32.255Z,14.40
2022-11-24T13:08:59.388Z,14.77
2022-11-24T13:11:30.922Z,14.17
2022-11-24T13:14:00.304Z,13.57
2022-11-24T13:16:36.073Z,13.93
2022-11-24T13:19:14.190Z,11.83
2022-11-24T13:21:40.678Z,16.30
2022-11-24T13:24:16.771Z,13.60
2022-11-24T13:26:43.711Z,18.27
2022-11-24T13:29:29.046Z,13.43
2022-11-24T13:32:15.526Z,14.43
2022-11-24T13:34:50.050Z,16.80
2022-11-24T13:37:29.095Z,15.90
2022-11-24T13:40:11.785Z,15.30
2022-11-24T13:43:07.745Z,9.97
2022-11-24T13:45:54.617Z,12.80
2022-11-24T13:48:21.894Z,10.17
2022-11-24T13:50:56.269Z,13.63
2022-11-24T13:53:32.143Z,13.57
2022-11-24T13:56:14.268Z,14.80
2022-11-24T13:58:44.977Z,14.56
2022-11-24T14:01:17.609Z,17.20
2022-11-24T14:04:07.083Z,14.07
2022-11-24T14:06:40.022Z,12.20
2022-11-24T14:09:26.813Z,13.57
2022-11-24T14:12:13.354Z,12.83
2022-11-24T14:14:40.619Z,11.03
2022-11-24T14:17:08.031Z,10.93
2022-11-24T14:19:34.677Z,8.67
2022-11-24T14:22:01.392Z,13.23
2022-11-24T14:24:33.455Z,8.67
2022-11-24T14:27:02.344Z,11.50
2022-11-24T14:29:33.091Z,13.27
2022-11-24T14:32:01.081Z,11.77
2022-11-24T14:34:29.106Z,12.27
2022-11-24T14:36:56.534Z,12.18
2022-11-24T14:39:24.199Z,17.40
2022-11-24T14:42:04.602Z,12.37
2022-11-24T14:44:33.514Z,19.80
2022-11-24T14:47:08.178Z,10.70
2022-11-24T14:49:39.762Z,11.40
2022-11-24T14:52:11.374Z,12.73
2022-11-24T14:54:44.572Z,12.20
2022-11-24T14:57:24.848Z,15.30
2022-11-24T15:00:10.960Z,12.97
2022-11-24T15:02:43.843Z,17.17
2022-11-24T15:05:11.121Z,15.03
2022-11-24T15:07:39.539Z,23.23
2022-11-24T15:10:17.238Z,16.43
2022-11-24T15:12:48.638Z,15.07
2022-11-24T15:15:15.416Z,18.63
2022-11-24T15:17:49.970Z,15.27
2022-11-24T15:20:25.729Z,19.27
2022-11-24T15:23:12.210Z,18.87
2022-11-24T15:25:39.255Z,12.17
2022-11-24T15:28:05.751Z,20.87
2022-11-24T15:30:34.335Z,23.17
2022-11-24T15:33:00.999Z,11.13
2022-11-24T15:35:31.552Z,7.70
2022-11-24T15:37:58.654Z,7.60
2022-11-24T15:40:25.253Z,8.83
2022-11-24T15:42:53.335Z,5.47
2022-11-24T15:45:20.985Z,6.17
2022-11-24T15:47:47.778Z,6.87
2022-11-24T15:50:14.856Z,6.37
2022-11-24T15:52:42.040Z,5.27
2022-11-24T15:55:18.830Z,4.73
2022-11-24T15:57:45.624Z,7.90
2022-11-24T16:00:16.755Z,8.53
2022-11-24T16:02:43.473Z,6.90
2022-11-24T16:05:11.200Z,8.10
2022-11-24T16:07:37.838Z,7.67
2022-11-24T16:10:05.175Z,6.97
2022-11-24T16:12:31.912Z,9.40
2022-11-24T16:14:58.656Z,7.90
2022-11-24T16:17:25.223Z,10.70
2022-11-24T16:20:00.098Z,6.77
2022-11-24T16:22:27.411Z,8.53
2022-11-24T16:24:54.165Z,8.90
2022-11-24T16:27:20.667Z,8.87
2022-11-24T16:29:47.189Z,9.67
2022-11-24T16:32:13.956Z,8.60
2022-11-24T16:34:40.577Z,10.97
2022-11-24T16:37:07.511Z,11.10
2022-11-24T16:39:34.254Z,9.13
2022-11-24T16:42:00.775Z,8.00
2022-11-24T16:44:27.285Z,9.43
2022-11-24T16:46:54.297Z,8.67
2022-11-24T16:49:21.095Z,11.90
2022-11-24T16:51:47.676Z,9.77
2022-11-24T16:54:14.476Z,11.40
2022-11-24T16:56:41.004Z,11.07
2022-11-24T16:59:07.548Z,9.30
2022-11-24T17:01:34.600Z,11.53
2022-11-24T17:04:01.169Z,12.83
2022-11-24T17:06:28.140Z,9.40
2022-11-24T17:08:55.454Z,13.43
2022-11-24T17:11:23.087Z,11.47
2022-11-24T17:13:50.491Z,20.27
2022-11-24T17:16:18.416Z,17.90
2022-11-24T17:18:45.530Z,18.13
2022-11-24T17:21:16.908Z,17.60
2022-11-24T17:23:43.832Z,14.07
2022-11-24T17:26:11.901Z,17.63
2022-11-24T17:28:38.627Z,13.60
2022-11-24T17:31:18.108Z,11.47
2022-11-24T17:33:44.691Z,8.47
2022-11-24T17:36:11.249Z,5.77
2022-11-24T17:38:38.177Z,8.73
2022-11-24T17:41:05.284Z,11.47
2022-11-24T17:43:32.192Z,8.20
2022-11-24T17:46:00.393Z,10.60
2022-11-24T17:48:27.036Z,9.00
2022-11-24T17:51:08.076Z,7.80
2022-11-24T17:53:37.696Z,14.73
2022-11-24T17:56:04.744Z,9.07
2022-11-24T17:58:35.374Z,11.80
2022-11-24T18:01:05.065Z,8.53
2022-11-24T18:03:32.667Z,7.73
2022-11-24T18:06:06.393Z,6.40
2022-11-24T18:08:33.842Z,10.70
2022-11-24T18:11:13.881Z,12.97
2022-11-24T18:13:56.575Z,10.80
2022-11-24T18:16:28.330Z,10.70
2022-11-24T18:19:07.334Z,8.60
2022-11-24T18:21:34.913Z,13.70
2022-11-24T18:24:01.498Z,11.50
2022-11-24T18:26:27.979Z,9.50
2022-11-24T18:28:54.722Z,7.33
2022-11-24T18:31:22.406Z,8.93
2022-11-24T18:34:28.982Z,9.20
2022-11-24T18:37:35.405Z,10.30
2022-11-24T18:40:41.914Z,8.83
2022-11-24T18:47:11.208Z,6.53
2022-11-24T18:50:17.550Z,6.37
2022-11-24T18:53:24.149Z,5.70
2022-11-24T19:00:03.481Z,4.30
2022-11-24T19:03:09.954Z,5.23
2022-11-24T19:06:16.458Z,4.73
2022-11-24T19:12:45.783Z,4.00
2022-11-24T19:15:52.226Z,4.87
2022-11-24T19:18:27.526Z,6.67
2022-11-24T19:21:33.933Z,6.43
2022-11-24T19:24:40.337Z,5.47
2022-11-24T19:27:46.826Z,7.93
2022-11-24T19:30:53.437Z,8.83
2022-11-24T19:34:02.336Z,9.63
2022-11-24T19:37:08.968Z,6.87
2022-11-24T19:40:15.469Z,7.77
2022-11-24T19:43:21.879Z,7.47
2022-11-24T19:46:28.299Z,6.17
2022-11-24T19:49:34.875Z,5.90
2022-11-24T19:52:41.400Z,6.73
2022-11-24T19:55:47.935Z,6.67
2022-11-24T19:58:54.418Z,7.57
2022-11-24T20:02:00.985Z,11.53
2022-11-24T20:05:07.564Z,8.50
2022-11-24T20:08:16.156Z,11.33
2022-11-24T20:11:22.592Z,8.43
2022-11-24T20:14:29.100Z,7.87
2022-11-24T20:17:35.586Z,6.90
2022-11-24T20:24:15.761Z,6.22
2022-11-24T20:27:22.178Z,6.23
2022-11-24T21:38:39.052Z,5.23
2022-11-24T21:41:07.041Z,10.83
2022-11-24T21:43:33.851Z,5.10
2022-11-24T21:46:01.987Z,9.73
2022-11-24T21:48:29.118Z,6.80
2022-11-24T21:55:09.654Z,4.28
2022-11-24T21:58:16.092Z,8.80
2022-11-24T22:01:22.670Z,7.47
2022-11-24T22:04:29.305Z,6.90
2022-11-24T22:07:35.795Z,5.83
2022-11-24T22:10:42.373Z,7.70
2022-11-24T22:13:49.173Z,6.37
2022-11-24T22:16:55.606Z,6.37
2022-11-24T22:20:02.162Z,8.80
2022-11-24T22:23:08.580Z,8.93
2022-11-24T22:29:38.668Z,3.90
2022-11-24T22:32:45.057Z,9.13
2022-11-24T22:35:51.614Z,8.80
2022-11-24T22:38:18.250Z,7.93
2022-11-24T22:40:44.804Z,7.93
2022-11-24T22:43:11.472Z,3.43
2022-11-24T22:45:38.207Z,2.93
2022-11-24T22:48:04.817Z,7.03
2022-11-24T22:50:31.351Z,4.67
2022-11-24T22:52:58.006Z,5.73
2022-11-24T22:55:24.566Z,2.67
2022-11-24T22:57:54.516Z,3.87
2022-11-24T23:00:23.615Z,3.80
2022-11-24T23:02:50.131Z,2.80
2022-11-24T23:05:20.586Z,2.40
2022-11-24T23:07:47.937Z,3.63
2022-11-24T23:10:14.525Z,4.10
2022-11-24T23:12:41.010Z,4.00
2022-11-24T23:15:07.784Z,4.70
2022-11-24T23:17:34.291Z,1.77
2022-11-24T23:20:00.975Z,3.57
2022-11-24T23:22:27.637Z,4.07
2022-11-24T23:24:54.084Z,5.70
2022-11-24T23:27:20.836Z,6.90
2022-11-24T23:29:47.560Z,6.27
2022-11-24T23:32:14.020Z,4.63
2022-11-24T23:34:40.525Z,5.70
2022-11-24T23:37:07.267Z,2.30
2022-11-24T23:39:34.161Z,3.80
2022-11-24T23:42:00.867Z,2.07
2022-11-24T23:44:27.532Z,4.20
2022-11-24T23:46:54.041Z,6.40
2022-11-24T23:49:20.728Z,3.67
2022-11-24T23:51:47.520Z,7.17
2022-11-24T23:54:14.029Z,3.43
2022-11-24T23:56:40.614Z,3.43
2022-11-24T23:59:10.300Z,3.63
